Time;durP1;ratioP1;P1;durP2;ratioP2;P2;SDS_P1;SDS_P2;PMS_P1;PMS_P2;Temp;Humidity;BMP_temperature;BMP_pressure;BME280_temperature;BME280_humidity;BME280_pressure;Samples;Min_cycle;Max_cycle;Signal;HPM_P1;HPM_P2
2022/12/30 00:00:36;;;;;;;1.80;0.70;;;;;;;;;;5037807;28;20598;-88
2022/12/30 00:03:02;;;;;;;0.70;0.70;;;;;;;;;;5038047;28;20033;-88
2022/12/30 00:05:27;;;;;;;0.63;0.63;;;;;;;;;;5012621;28;20070;-88
2022/12/30 00:07:53;;;;;;;0.30;0.30;;;;;;;;;;5020464;28;20021;-88
2022/12/30 00:10:18;;;;;;;0.60;0.60;;;;;;;;;;5038490;28;20017;-88
2022/12/30 00:35:03;;;;;;;1.25;0.50;;;;;;;;;;5038583;28;20112;-87
2022/12/30 00:37:28;;;;;;;0.57;0.55;;;;;;;;;;5006634;28;20029;-86
2022/12/30 00:39:54;;;;;;;0.40;0.40;;;;;;;;;;5020558;28;20026;-88
2022/12/30 00:45:04;;;;;;;0.93;0.47;;;;;;;;;;5021356;28;20056;-88
2022/12/30 00:47:29;;;;;;;2.45;0.68;;;;;;;;;;5033737;28;20022;-86
2022/12/30 00:58:07;;;;;;;0.70;0.50;;;;;;;;;;5054265;28;20036;-86
2022/12/30 01:00:32;;;;;;;0.75;0.40;;;;;;;;;;5033427;28;20124;-86
2022/12/30 01:02:57;;;;;;;3.15;0.77;;;;;;;;;;5040900;28;20048;-86
2022/12/30 01:05:23;;;;;;;11.55;2.83;;;;;;;;;;5031519;28;20100;-87
2022/12/30 01:07:48;;;;;;;1.73;1.08;;;;;;;;;;5039594;28;20036;-87
2022/12/30 01:10:14;;;;;;;3.20;0.90;;;;;;;;;;5042437;28;20014;-86
2022/12/30 01:12:40;;;;;;;4.00;1.38;;;;;;;;;;5041462;28;20025;-87
2022/12/30 01:15:06;;;;;;;3.33;0.52;;;;;;;;;;5020752;28;20018;-86
2022/12/30 01:17:33;;;;;;;0.50;0.50;;;;;;;;;;5048051;28;20040;-86
2022/12/30 01:19:59;;;;;;;0.80;0.55;;;;;;;;;;5040878;28;20029;-88
2022/12/30 01:22:25;;;;;;;0.60;0.60;;;;;;;;;;5026958;28;20018;-87
2022/12/30 01:24:50;;;;;;;0.45;0.45;;;;;;;;;;5036215;28;20434;-87
2022/12/30 01:27:16;;;;;;;0.57;0.55;;;;;;;;;;5018690;28;20116;-87
2022/12/30 01:29:43;;;;;;;0.47;0.47;;;;;;;;;;5019485;28;20104;-86
2022/12/30 01:32:17;;;;;;;0.63;0.52;;;;;;;;;;5019316;28;20406;-87
2022/12/30 01:34:43;;;;;;;0.40;0.40;;;;;;;;;;5036901;28;20029;-87
2022/12/30 01:37:10;;;;;;;0.30;0.30;;;;;;;;;;5029378;28;20036;-86
2022/12/30 01:39:36;;;;;;;2.90;0.82;;;;;;;;;;5019506;28;20017;-89
2022/12/30 01:42:02;;;;;;;3.13;0.50;;;;;;;;;;5036628;28;20082;-87
2022/12/30 01:44:45;;;;;;;0.40;0.40;;;;;;;;;;5037853;28;20021;-89
2022/12/30 01:47:16;;;;;;;0.50;0.50;;;;;;;;;;5018867;28;20478;-88
2022/12/30 01:49:46;;;;;;;1.60;0.50;;;;;;;;;;5037684;28;20057;-88
2022/12/30 01:52:13;;;;;;;0.30;0.30;;;;;;;;;;5038255;28;20033;-88
2022/12/30 01:54:39;;;;;;;0.30;0.30;;;;;;;;;;5020923;28;20021;-87
2022/12/30 01:57:06;;;;;;;0.68;0.45;;;;;;;;;;5020342;28;20032;-88
2022/12/30 01:59:32;;;;;;;0.85;0.38;;;;;;;;;;5038902;28;20037;-88
2022/12/30 02:01:59;;;;;;;0.93;0.65;;;;;;;;;;5021550;28;20049;-88
2022/12/30 02:04:27;;;;;;;0.15;0.15;;;;;;;;;;5034380;28;20498;-88
2022/12/30 02:06:58;;;;;;;0.32;0.32;;;;;;;;;;5005511;28;20447;-88
2022/12/30 02:09:25;;;;;;;3.00;0.40;;;;;;;;;;5014140;28;20017;-88
2022/12/30 02:11:51;;;;;;;0.75;0.50;;;;;;;;;;5023655;28;20022;-87
2022/12/30 02:14:16;;;;;;;0.40;0.40;;;;;;;;;;4998303;28;20033;-88
2022/12/30 02:16:49;;;;;;;1.60;0.32;;;;;;;;;;4997636;28;20037;-88
2022/12/30 02:19:45;;;;;;;0.45;0.40;;;;;;;;;;5005500;28;20029;-87
2022/12/30 02:22:45;;;;;;;0.40;0.40;;;;;;;;;;5017380;28;20471;-88
2022/12/30 02:25:25;;;;;;;0.40;0.40;;;;;;;;;;5034918;28;20021;-88
2022/12/30 02:28:12;;;;;;;0.30;0.30;;;;;;;;;;5034336;28;20026;-88
2022/12/30 02:30:58;;;;;;;0.30;0.30;;;;;;;;;;5017111;28;20049;-87
2022/12/30 02:33:35;;;;;;;0.40;0.40;;;;;;;;;;5035239;28;20033;-87
2022/12/30 02:36:32;;;;;;;0.95;0.50;;;;;;;;;;5036512;28;20055;-88
2022/12/30 02:38:57;;;;;;;0.22;0.22;;;;;;;;;;5016627;28;20061;-87
2022/12/30 02:44:39;;;;;;;0.20;0.20;;;;;;;;;;5035469;28;20419;-88
2022/12/30 02:47:30;;;;;;;0.47;0.47;;;;;;;;;;5030108;28;20036;-88
2022/12/30 02:52:47;;;;;;;0.45;0.45;;;;;;;;;;5035795;28;20059;-88
2022/12/30 02:55:14;;;;;;;0.38;0.38;;;;;;;;;;5016580;28;20033;-88
2022/12/30 02:57:40;;;;;;;0.25;0.25;;;;;;;;;;5005949;28;20029;-87
2022/12/30 03:05:57;;;;;;;0.30;0.30;;;;;;;;;;5017855;28;20068;-87
2022/12/30 03:08:54;;;;;;;1.55;0.52;;;;;;;;;;5017213;28;20049;-88
2022/12/30 03:11:21;;;;;;;0.38;0.30;;;;;;;;;;5018033;28;20458;-88
2022/12/30 03:14:09;;;;;;;0.30;0.30;;;;;;;;;;5018701;28;20036;-88
2022/12/30 03:16:37;;;;;;;1.17;0.50;;;;;;;;;;5018878;28;20068;-88
2022/12/30 03:19:07;;;;;;;1.45;0.50;;;;;;;;;;5019345;28;20356;-88
2022/12/30 03:21:38;;;;;;;3.35;0.40;;;;;;;;;;5000871;28;20030;-88
2022/12/30 03:27:05;;;;;;;0.40;0.40;;;;;;;;;;5020880;28;20037;-87
2022/12/30 03:29:52;;;;;;;0.52;0.52;;;;;;;;;;5020511;28;20467;-87
2022/12/30 03:32:18;;;;;;;0.50;0.50;;;;;;;;;;5017565;28;20026;-88
2022/12/30 03:34:45;;;;;;;0.50;0.50;;;;;;;;;;5035176;28;20021;-88
2022/12/30 03:37:16;;;;;;;0.45;0.45;;;;;;;;;;5039703;28;20586;-89
2022/12/30 03:39:48;;;;;;;1.05;0.68;;;;;;;;;;5042020;28;20087;-88
2022/12/30 03:42:14;;;;;;;0.30;0.30;;;;;;;;;;5039056;28;20029;-89
2022/12/30 03:44:42;;;;;;;0.35;0.35;;;;;;;;;;5022227;28;20541;-89
2022/12/30 03:47:13;;;;;;;0.40;0.40;;;;;;;;;;5021339;28;20029;-89
2022/12/30 03:49:41;;;;;;;1.63;0.43;;;;;;;;;;5029320;28;20044;-89
2022/12/30 03:52:06;;;;;;;1.00;0.77;;;;;;;;;;5038378;28;20029;-89
2022/12/30 03:54:32;;;;;;;0.30;0.30;;;;;;;;;;5038439;28;20041;-89
2022/12/30 03:56:57;;;;;;;0.95;0.52;;;;;;;;;;5038955;28;20048;-88
2022/12/30 03:59:22;;;;;;;0.45;0.45;;;;;;;;;;5020683;28;20017;-88
2022/12/30 04:01:48;;;;;;;0.30;0.30;;;;;;;;;;5039299;28;20132;-88
2022/12/30 04:04:13;;;;;;;0.75;0.50;;;;;;;;;;5032318;28;20025;-87
2022/12/30 04:06:38;;;;;;;2.00;0.82;;;;;;;;;;5039312;28;20036;-88
2022/12/30 04:09:04;;;;;;;0.50;0.50;;;;;;;;;;5021604;28;20025;-88
2022/12/30 04:11:29;;;;;;;3.15;0.63;;;;;;;;;;5039741;28;20052;-87
2022/12/30 04:13:54;;;;;;;0.65;0.63;;;;;;;;;;5021739;28;20462;-87
2022/12/30 04:16:20;;;;;;;0.60;0.60;;;;;;;;;;5039935;28;20040;-88
2022/12/30 04:18:45;;;;;;;1.00;0.47;;;;;;;;;;5030916;28;20045;-87
2022/12/30 04:21:10;;;;;;;0.55;0.55;;;;;;;;;;5020058;28;20021;-88
2022/12/30 04:23:36;;;;;;;0.82;0.82;;;;;;;;;;5002067;28;20500;-87
2022/12/30 04:26:01;;;;;;;0.55;0.47;;;;;;;;;;5020876;28;20041;-87
2022/12/30 04:28:27;;;;;;;0.75;0.63;;;;;;;;;;5021238;28;20030;-87
2022/12/30 04:30:52;;;;;;;0.68;0.68;;;;;;;;;;5004420;28;20030;-87
2022/12/30 04:33:18;;;;;;;0.65;0.65;;;;;;;;;;5011585;28;20029;-89
2022/12/30 04:35:43;;;;;;;0.95;0.52;;;;;;;;;;5024331;28;20061;-87
2022/12/30 04:38:08;;;;;;;1.08;0.70;;;;;;;;;;5042191;28;20029;-87
2022/12/30 04:40:34;;;;;;;1.25;0.85;;;;;;;;;;5043346;28;20499;-87
2022/12/30 04:43:01;;;;;;;0.50;0.50;;;;;;;;;;5043640;28;20057;-87
2022/12/30 04:45:29;;;;;;;0.30;0.30;;;;;;;;;;5052438;28;20053;-88
2022/12/30 04:47:54;;;;;;;0.60;0.60;;;;;;;;;;5021444;28;20450;-88
2022/12/30 04:50:19;;;;;;;0.98;0.80;;;;;;;;;;5000032;28;20113;-88
2022/12/30 04:52:45;;;;;;;0.77;0.77;;;;;;;;;;5016792;28;20112;-88
2022/12/30 04:55:10;;;;;;;0.73;0.60;;;;;;;;;;5037113;28;20117;-88
2022/12/30 04:57:35;;;;;;;0.98;0.50;;;;;;;;;;5019613;28;20030;-87
2022/12/30 05:00:03;;;;;;;0.63;0.45;;;;;;;;;;5036840;28;20032;-88
2022/12/30 05:02:28;;;;;;;1.55;0.65;;;;;;;;;;5037281;28;20053;-88
2022/12/30 05:04:54;;;;;;;0.50;0.50;;;;;;;;;;5018623;28;20021;-88
2022/12/30 05:07:19;;;;;;;0.32;0.32;;;;;;;;;;5036080;28;20159;-88
2022/12/30 05:09:44;;;;;;;0.60;0.60;;;;;;;;;;5036262;28;20026;-88
2022/12/30 05:12:10;;;;;;;0.50;0.50;;;;;;;;;;5036078;28;20033;-87
2022/12/30 05:14:35;;;;;;;0.52;0.52;;;;;;;;;;5030717;28;20056;-89
2022/12/30 05:17:00;;;;;;;0.40;0.40;;;;;;;;;;5019322;28;20022;-87
2022/12/30 05:19:25;;;;;;;0.47;0.47;;;;;;;;;;5036809;28;20021;-88
2022/12/30 05:21:51;;;;;;;1.45;0.73;;;;;;;;;;5037108;28;20030;-87
2022/12/30 05:27:00;;;;;;;2.63;0.40;;;;;;;;;;5037188;28;20052;-87
2022/12/30 05:29:25;;;;;;;1.60;0.50;;;;;;;;;;5019036;28;20021;-87
2022/12/30 05:31:51;;;;;;;0.40;0.40;;;;;;;;;;5036540;28;20033;-89
2022/12/30 05:34:16;;;;;;;0.45;0.45;;;;;;;;;;5018716;28;20032;-87
2022/12/30 05:36:42;;;;;;;0.50;0.50;;;;;;;;;;5037131;28;20089;-87
2022/12/30 05:39:12;;;;;;;2.92;0.60;;;;;;;;;;5036068;28;20448;-88
2022/12/30 05:41:38;;;;;;;0.50;0.50;;;;;;;;;;5018670;28;20028;-88
2022/12/30 05:44:04;;;;;;;0.90;0.60;;;;;;;;;;5036852;28;20025;-88
2022/12/30 05:46:29;;;;;;;0.28;0.28;;;;;;;;;;5019358;28;20116;-88
2022/12/30 05:48:54;;;;;;;4.57;0.40;;;;;;;;;;5016103;28;20399;-87
2022/12/30 05:51:20;;;;;;;0.35;0.35;;;;;;;;;;4999161;28;20088;-88
2022/12/30 05:53:45;;;;;;;0.45;0.40;;;;;;;;;;4999631;28;20479;-88
2022/12/30 05:56:11;;;;;;;1.52;0.50;;;;;;;;;;4999559;28;20495;-88
2022/12/30 05:58:36;;;;;;;0.63;0.38;;;;;;;;;;5003147;28;20025;-87
2022/12/30 06:01:02;;;;;;;0.20;0.20;;;;;;;;;;5037127;28;20399;-88
2022/12/30 06:03:28;;;;;;;0.35;0.35;;;;;;;;;;5018916;28;20108;-88
2022/12/30 06:06:02;;;;;;;0.73;0.70;;;;;;;;;;5000953;28;20045;-88
2022/12/30 06:08:28;;;;;;;0.70;0.70;;;;;;;;;;5017164;28;20494;-88
2022/12/30 06:10:53;;;;;;;1.00;0.63;;;;;;;;;;5017880;28;20482;-88
2022/12/30 06:13:19;;;;;;;0.63;0.63;;;;;;;;;;4999394;28;20026;-87
2022/12/30 06:15:45;;;;;;;1.08;0.60;;;;;;;;;;5017821;28;20030;-88
2022/12/30 06:18:10;;;;;;;0.40;0.40;;;;;;;;;;5010309;28;20116;-88
2022/12/30 06:20:36;;;;;;;0.50;0.50;;;;;;;;;;5039623;28;20064;-87
2022/12/30 06:23:01;;;;;;;0.30;0.30;;;;;;;;;;5018308;28;20427;-87
2022/12/30 06:25:27;;;;;;;0.32;0.32;;;;;;;;;;5035968;28;20029;-88
2022/12/30 06:27:52;;;;;;;0.60;0.60;;;;;;;;;;5010421;28;20083;-88
2022/12/30 06:30:18;;;;;;;0.80;0.60;;;;;;;;;;5007318;28;20496;-88
2022/12/30 06:32:43;;;;;;;0.50;0.50;;;;;;;;;;5017733;28;20381;-88
2022/12/30 06:35:10;;;;;;;1.25;0.90;;;;;;;;;;5011617;28;20032;-88
2022/12/30 06:37:35;;;;;;;0.70;0.70;;;;;;;;;;5018767;28;20025;-88
2022/12/30 06:40:01;;;;;;;1.15;0.82;;;;;;;;;;5036794;28;20036;-87
2022/12/30 06:42:26;;;;;;;1.30;1.20;;;;;;;;;;5037322;28;20022;-88
2022/12/30 06:44:51;;;;;;;2.17;1.25;;;;;;;;;;5042650;28;20407;-88
2022/12/30 06:47:17;;;;;;;9.23;1.75;;;;;;;;;;5040430;28;20044;-87
2022/12/30 06:49:43;;;;;;;4.10;2.08;;;;;;;;;;5013810;28;20087;-87
2022/12/30 06:52:08;;;;;;;14.15;4.30;;;;;;;;;;5032698;28;20055;-87
2022/12/30 06:54:33;;;;;;;25.92;5.05;;;;;;;;;;5022912;28;20030;-87
2022/12/30 06:56:59;;;;;;;12.85;3.35;;;;;;;;;;5023010;28;20040;-88
2022/12/30 06:59:24;;;;;;;30.77;5.80;;;;;;;;;;5033647;28;20018;-88
2022/12/30 07:01:50;;;;;;;10.32;2.70;;;;;;;;;;5028440;28;20048;-88
2022/12/30 07:04:15;;;;;;;8.73;2.45;;;;;;;;;;5040337;28;20117;-88
2022/12/30 07:06:40;;;;;;;17.10;3.78;;;;;;;;;;5032662;28;20026;-87
2022/12/30 07:09:06;;;;;;;15.85;3.15;;;;;;;;;;5021179;28;20029;-87
2022/12/30 07:11:32;;;;;;;14.40;3.60;;;;;;;;;;5036300;28;20112;-88
2022/12/30 07:13:57;;;;;;;16.42;4.00;;;;;;;;;;5004322;28;20025;-87
2022/12/30 07:16:23;;;;;;;9.07;3.17;;;;;;;;;;5021242;28;20030;-87
2022/12/30 07:18:48;;;;;;;16.23;4.03;;;;;;;;;;5021000;28;20114;-88
2022/12/30 07:21:13;;;;;;;9.10;2.97;;;;;;;;;;5026817;28;20072;-88
2022/12/30 07:23:39;;;;;;;4.07;1.75;;;;;;;;;;5003139;28;20037;-88
2022/12/30 07:26:04;;;;;;;2.80;1.00;;;;;;;;;;5036496;28;20029;-89
2022/12/30 07:28:30;;;;;;;0.88;0.88;;;;;;;;;;5024325;28;20029;-89
2022/12/30 07:30:55;;;;;;;0.70;0.70;;;;;;;;;;5024859;28;20025;-89
2022/12/30 07:33:20;;;;;;;0.73;0.70;;;;;;;;;;5025033;28;20064;-89
2022/12/30 07:35:46;;;;;;;2.00;1.10;;;;;;;;;;5018934;28;20048;-88
2022/12/30 07:38:12;;;;;;;1.83;1.23;;;;;;;;;;5039809;28;20036;-89
2022/12/30 07:40:37;;;;;;;0.88;0.88;;;;;;;;;;5023521;28;20009;-88
2022/12/30 07:43:03;;;;;;;1.17;1.00;;;;;;;;;;5040558;28;20025;-88
2022/12/30 07:45:28;;;;;;;0.73;0.73;;;;;;;;;;5030069;28;20002;-89
2022/12/30 07:47:57;;;;;;;1.08;0.80;;;;;;;;;;5037379;28;20026;-88
2022/12/30 07:50:22;;;;;;;1.75;1.20;;;;;;;;;;5013541;28;20021;-88
2022/12/30 07:52:48;;;;;;;0.73;0.73;;;;;;;;;;5027095;28;20041;-87
2022/12/30 07:55:13;;;;;;;0.80;0.80;;;;;;;;;;5031072;28;20029;-88
2022/12/30 07:57:39;;;;;;;1.50;1.08;;;;;;;;;;5004516;28;20117;-88
2022/12/30 08:00:05;;;;;;;0.85;0.85;;;;;;;;;;5004879;28;20030;-88
2022/12/30 08:02:30;;;;;;;0.70;0.70;;;;;;;;;;5005250;28;20033;-88
2022/12/30 08:04:55;;;;;;;1.33;0.90;;;;;;;;;;5041416;28;20097;-88
2022/12/30 08:07:21;;;;;;;1.30;0.65;;;;;;;;;;5024975;28;20476;-88
2022/12/30 08:09:46;;;;;;;0.98;0.93;;;;;;;;;;5049199;28;20085;-88
2022/12/30 08:12:11;;;;;;;1.17;0.93;;;;;;;;;;5037448;28;20021;-87
2022/12/30 08:14:37;;;;;;;1.35;1.10;;;;;;;;;;5040975;28;20056;-87
2022/12/30 08:17:02;;;;;;;1.30;1.20;;;;;;;;;;5023439;28;20064;-87
2022/12/30 08:19:28;;;;;;;0.93;0.93;;;;;;;;;;5022815;28;20447;-88
2022/12/30 08:21:53;;;;;;;1.60;1.50;;;;;;;;;;5041606;28;20036;-89
2022/12/30 08:24:19;;;;;;;1.40;1.10;;;;;;;;;;5023771;28;20112;-89
2022/12/30 08:26:45;;;;;;;4.82;1.55;;;;;;;;;;5022997;28;20756;-88
2022/12/30 08:29:10;;;;;;;1.00;1.00;;;;;;;;;;5040102;28;20025;-88
2022/12/30 08:31:35;;;;;;;1.42;1.33;;;;;;;;;;5023057;28;20056;-88
2022/12/30 08:34:01;;;;;;;2.53;1.67;;;;;;;;;;5021537;28;20022;-89
2022/12/30 08:36:28;;;;;;;4.25;1.80;;;;;;;;;;5040618;28;20072;-88
2022/12/30 08:38:56;;;;;;;3.15;1.05;;;;;;;;;;5023587;28;20116;-88
2022/12/30 08:41:29;;;;;;;1.27;1.17;;;;;;;;;;5042142;28;20021;-88
2022/12/30 08:43:56;;;;;;;3.80;1.25;;;;;;;;;;5024000;28;20030;-88
2022/12/30 08:46:22;;;;;;;1.50;1.30;;;;;;;;;;5043191;28;20036;-87
2022/12/30 08:48:48;;;;;;;2.55;1.55;;;;;;;;;;5025338;28;20029;-87
2022/12/30 08:51:14;;;;;;;1.25;1.15;;;;;;;;;;5043741;28;20040;-87
2022/12/30 08:53:39;;;;;;;2.58;1.40;;;;;;;;;;5023009;28;20029;-87
2022/12/30 08:56:08;;;;;;;1.63;1.35;;;;;;;;;;5015359;28;20025;-88
2022/12/30 08:58:34;;;;;;;3.72;1.45;;;;;;;;;;5022221;28;20093;-89
2022/12/30 09:01:07;;;;;;;1.33;1.20;;;;;;;;;;5009998;28;20124;-88
2022/12/30 09:03:32;;;;;;;1.42;1.25;;;;;;;;;;5018429;28;20079;-87
2022/12/30 09:05:58;;;;;;;3.22;1.45;;;;;;;;;;5036046;28;20029;-88
2022/12/30 09:08:23;;;;;;;2.67;1.38;;;;;;;;;;5019915;28;20120;-88
2022/12/30 09:11:06;;;;;;;1.25;1.23;;;;;;;;;;5017632;28;20029;-88
2022/12/30 09:13:32;;;;;;;1.45;1.35;;;;;;;;;;5000764;28;20029;-89
2022/12/30 09:16:01;;;;;;;1.20;1.10;;;;;;;;;;5001614;28;20387;-87
2022/12/30 09:18:26;;;;;;;1.27;1.08;;;;;;;;;;5017602;28;20076;-87
2022/12/30 09:20:52;;;;;;;2.13;1.33;;;;;;;;;;5018981;28;20499;-87
2022/12/30 09:23:18;;;;;;;1.77;1.30;;;;;;;;;;5037775;28;20025;-89
2022/12/30 09:25:43;;;;;;;1.50;1.13;;;;;;;;;;5019190;28;20053;-89
2022/12/30 09:28:12;;;;;;;2.90;1.27;;;;;;;;;;5036502;28;20124;-88
2022/12/30 09:30:47;;;;;;;2.65;1.42;;;;;;;;;;5037068;28;20032;-88
2022/12/30 09:33:18;;;;;;;3.40;1.23;;;;;;;;;;5038189;28;20025;-88
2022/12/30 09:35:49;;;;;;;1.27;1.25;;;;;;;;;;5012284;28;20033;-88
2022/12/30 09:38:14;;;;;;;3.55;1.60;;;;;;;;;;5019364;28;20112;-88
2022/12/30 09:41:02;;;;;;;1.85;1.60;;;;;;;;;;5037995;28;20052;-89
2022/12/30 09:43:30;;;;;;;1.70;1.60;;;;;;;;;;5020032;28;20093;-87
2022/12/30 09:46:09;;;;;;;2.10;1.90;;;;;;;;;;5020383;28;20112;-89
2022/12/30 09:48:52;;;;;;;2.03;1.77;;;;;;;;;;5037215;28;20029;-88
2022/12/30 09:51:25;;;;;;;1.42;1.33;;;;;;;;;;5037145;28;20025;-88
2022/12/30 09:54:01;;;;;;;1.58;1.40;;;;;;;;;;5036907;28;20109;-88
2022/12/30 09:56:42;;;;;;;1.67;1.58;;;;;;;;;;5006684;28;20026;-88
2022/12/30 09:59:42;;;;;;;1.38;1.25;;;;;;;;;;4999962;28;20102;-88
2022/12/30 10:02:23;;;;;;;3.45;2.05;;;;;;;;;;5014247;28;20050;-87
2022/12/30 10:04:52;;;;;;;2.30;1.40;;;;;;;;;;5019493;28;20052;-87
2022/12/30 10:07:37;;;;;;;3.65;1.58;;;;;;;;;;5017590;28;20010;-88
2022/12/30 10:10:43;;;;;;;2.92;1.20;;;;;;;;;;5019607;28;20026;-87
2022/12/30 10:13:30;;;;;;;2.30;1.50;;;;;;;;;;5000363;28;20033;-89
2022/12/30 10:16:09;;;;;;;1.48;1.35;;;;;;;;;;5018817;28;20030;-88
2022/12/30 10:18:55;;;;;;;1.70;1.30;;;;;;;;;;5001298;28;20105;-88
2022/12/30 10:21:28;;;;;;;1.73;1.52;;;;;;;;;;5003639;28;20029;-88
2022/12/30 10:23:58;;;;;;;1.85;1.38;;;;;;;;;;5003665;28;20030;-88
2022/12/30 10:26:45;;;;;;;1.33;1.23;;;;;;;;;;5018382;28;20037;-88
2022/12/30 10:29:33;;;;;;;2.55;1.50;;;;;;;;;;5041246;28;20028;-88
2022/12/30 10:32:14;;;;;;;2.95;1.67;;;;;;;;;;5042769;28;20021;-88
2022/12/30 10:34:40;;;;;;;3.70;1.58;;;;;;;;;;5024610;28;20022;-88
2022/12/30 10:37:15;;;;;;;2.80;1.73;;;;;;;;;;5019869;28;20029;-88
2022/12/30 10:39:52;;;;;;;1.00;0.57;;;;;;;;;;5013316;28;20033;-87
2022/12/30 10:42:50;;;;;;;1.63;0.90;;;;;;;;;;5006492;28;20049;-88
2022/12/30 10:48:47;;;;;;;1.50;0.95;;;;;;;;;;5024482;28;20041;-86
2022/12/30 10:51:16;;;;;;;1.10;0.63;;;;;;;;;;5032561;28;20021;-89
2022/12/30 10:53:48;;;;;;;3.83;0.88;;;;;;;;;;5021875;28;20052;-86
2022/12/30 10:56:24;;;;;;;0.77;0.52;;;;;;;;;;5006926;28;20413;-87
2022/12/30 10:59:28;;;;;;;0.50;0.50;;;;;;;;;;5022675;28;20026;-88
2022/12/30 11:02:16;;;;;;;1.10;1.00;;;;;;;;;;5021074;28;20510;-88
2022/12/30 11:04:45;;;;;;;4.00;0.85;;;;;;;;;;5037338;28;20041;-88
2022/12/30 11:07:20;;;;;;;2.03;0.70;;;;;;;;;;5030195;28;20072;-87
2022/12/30 11:09:46;;;;;;;0.68;0.65;;;;;;;;;;5023144;28;20029;-88
2022/12/30 11:15:05;;;;;;;0.70;0.70;;;;;;;;;;5021758;28;20439;-88
2022/12/30 11:17:40;;;;;;;0.93;0.57;;;;;;;;;;5027110;28;20494;-90
2022/12/30 11:20:21;;;;;;;0.90;0.68;;;;;;;;;;5044685;28;20104;-90
2022/12/30 11:22:52;;;;;;;1.17;1.07;;;;;;;;;;5043365;28;20068;-88
2022/12/30 11:25:42;;;;;;;0.80;0.80;;;;;;;;;;5042105;28;20025;-89
2022/12/30 11:28:17;;;;;;;0.60;0.60;;;;;;;;;;5025226;28;20072;-87
2022/12/30 11:30:51;;;;;;;0.52;0.52;;;;;;;;;;5024469;28;20022;-89
2022/12/30 11:33:35;;;;;;;0.77;0.77;;;;;;;;;;5028604;28;20010;-91
2022/12/30 11:36:32;;;;;;;0.95;0.85;;;;;;;;;;5019704;28;20056;-88
2022/12/30 11:39:26;;;;;;;0.50;0.50;;;;;;;;;;5002822;28;20060;-89
2022/12/30 11:41:57;;;;;;;0.70;0.65;;;;;;;;;;5011714;28;20034;-87
2022/12/30 11:44:28;;;;;;;1.67;0.73;;;;;;;;;;5020942;28;20034;-87
2022/12/30 11:47:01;;;;;;;0.85;0.70;;;;;;;;;;5002840;28;20034;-88
2022/12/30 11:49:35;;;;;;;0.70;0.70;;;;;;;;;;5003637;28;20037;-88
2022/12/30 11:52:03;;;;;;;0.60;0.60;;;;;;;;;;5020464;28;20492;-88
2022/12/30 11:54:38;;;;;;;0.80;0.60;;;;;;;;;;5022611;28;20045;-88
2022/12/30 11:57:06;;;;;;;0.63;0.63;;;;;;;;;;5039617;28;20032;-88
2022/12/30 11:59:44;;;;;;;0.85;0.65;;;;;;;;;;5021575;28;20075;-88
2022/12/30 12:02:30;;;;;;;1.55;0.95;;;;;;;;;;5039462;28;20045;-88
2022/12/30 12:04:56;;;;;;;0.98;0.88;;;;;;;;;;5005403;28;20030;-88
2022/12/30 12:07:42;;;;;;;0.63;0.63;;;;;;;;;;5034512;28;20036;-88
2022/12/30 12:10:22;;;;;;;3.42;0.70;;;;;;;;;;5023209;28;20022;-88
2022/12/30 12:13:17;;;;;;;2.83;1.40;;;;;;;;;;5021743;28;20029;-87
2022/12/30 12:15:50;;;;;;;1.02;0.93;;;;;;;;;;5000430;28;20099;-88
2022/12/30 12:18:25;;;;;;;2.35;1.00;;;;;;;;;;5024432;28;20041;-88
2022/12/30 12:20:56;;;;;;;1.67;0.70;;;;;;;;;;5038778;28;20025;-87
2022/12/30 12:23:57;;;;;;;1.30;0.98;;;;;;;;;;5020759;28;20031;-87
2022/12/30 12:26:25;;;;;;;0.57;0.50;;;;;;;;;;5015711;28;20030;-88
2022/12/30 12:28:52;;;;;;;1.55;0.80;;;;;;;;;;5038555;28;20384;-87
2022/12/30 12:31:47;;;;;;;1.10;0.82;;;;;;;;;;5038019;28;20025;-88
2022/12/30 12:34:37;;;;;;;0.90;0.77;;;;;;;;;;5026153;28;20014;-87
2022/12/30 12:37:52;;;;;;;0.60;0.60;;;;;;;;;;5019833;28;20052;-88
2022/12/30 12:40:33;;;;;;;0.93;0.90;;;;;;;;;;5007104;28;20435;-88
2022/12/30 12:43:21;;;;;;;1.95;1.00;;;;;;;;;;5020598;28;20132;-88
2022/12/30 12:46:22;;;;;;;3.80;1.38;;;;;;;;;;5038586;28;20037;-87
2022/12/30 12:49:15;;;;;;;1.90;1.15;;;;;;;;;;5021075;28;20364;-88
2022/12/30 12:51:53;;;;;;;5.57;1.08;;;;;;;;;;5020939;28;20079;-88
2022/12/30 12:54:24;;;;;;;1.13;0.88;;;;;;;;;;5019950;28;20025;-88
2022/12/30 12:57:05;;;;;;;1.05;0.95;;;;;;;;;;5021371;28;20040;-87
2022/12/30 13:00:11;;;;;;;2.20;1.50;;;;;;;;;;5021149;28;20091;-88
2022/12/30 13:03:41;;;;;;;1.27;1.08;;;;;;;;;;5025274;28;20028;-87
2022/12/30 13:06:18;;;;;;;1.45;1.05;;;;;;;;;;4942090;29;20043;-87
2022/12/30 13:09:01;;;;;;;3.92;1.05;;;;;;;;;;4939740;29;20031;-89
2022/12/30 13:11:59;;;;;;;2.03;1.00;;;;;;;;;;4975006;28;20480;-87
2022/12/30 13:14:57;;;;;;;1.80;0.70;;;;;;;;;;5017697;28;20153;-88
2022/12/30 13:17:33;;;;;;;0.70;0.70;;;;;;;;;;4977149;28;20133;-88
2022/12/30 13:20:05;;;;;;;3.53;1.33;;;;;;;;;;5017159;28;20030;-88
2022/12/30 13:22:38;;;;;;;1.10;1.00;;;;;;;;;;5017807;28;20022;-88
2022/12/30 13:25:14;;;;;;;1.00;0.90;;;;;;;;;;5018594;28;20057;-87
2022/12/30 13:27:42;;;;;;;1.20;1.10;;;;;;;;;;5017685;28;20120;-87
2022/12/30 13:30:14;;;;;;;1.75;1.02;;;;;;;;;;5020470;28;20014;-88
2022/12/30 13:32:59;;;;;;;3.78;1.15;;;;;;;;;;5012156;28;20017;-88
2022/12/30 13:35:53;;;;;;;0.75;0.75;;;;;;;;;;5001956;28;20412;-87
2022/12/30 13:38:28;;;;;;;1.02;0.90;;;;;;;;;;5018733;28;20361;-87
2022/12/30 13:41:16;;;;;;;1.60;0.90;;;;;;;;;;5017172;28;20026;-87
2022/12/30 13:43:46;;;;;;;2.97;1.17;;;;;;;;;;5001380;28;20034;-87
2022/12/30 13:46:20;;;;;;;0.98;0.98;;;;;;;;;;5020627;28;20040;-86
2022/12/30 13:48:59;;;;;;;2.05;1.25;;;;;;;;;;5017844;28;20030;-87
2022/12/30 13:51:27;;;;;;;4.07;1.63;;;;;;;;;;5017081;28;20064;-88
2022/12/30 13:54:15;;;;;;;1.08;0.95;;;;;;;;;;5020376;28;20387;-88
2022/12/30 13:56:44;;;;;;;6.22;1.10;;;;;;;;;;5012587;28;20727;-88
2022/12/30 13:59:30;;;;;;;1.27;1.00;;;;;;;;;;5019063;28;20030;-88
2022/12/30 14:02:56;;;;;;;1.05;0.95;;;;;;;;;;5000976;28;20061;-88
2022/12/30 14:05:37;;;;;;;1.00;0.82;;;;;;;;;;5027105;28;20026;-86
2022/12/30 14:08:17;;;;;;;0.90;0.85;;;;;;;;;;5018954;28;20021;-88
2022/12/30 14:11:01;;;;;;;0.93;0.93;;;;;;;;;;5019450;28;20028;-87
2022/12/30 14:13:26;;;;;;;0.85;0.77;;;;;;;;;;5022561;28;20041;-86
2022/12/30 14:15:57;;;;;;;1.85;1.05;;;;;;;;;;5013692;28;20476;-87
2022/12/30 14:18:36;;;;;;;1.00;0.90;;;;;;;;;;5013372;28;20029;-87
2022/12/30 14:21:17;;;;;;;2.03;1.50;;;;;;;;;;5016852;28;20043;-86
2022/12/30 14:23:49;;;;;;;1.40;1.30;;;;;;;;;;5015425;28;20025;-88
2022/12/30 14:26:18;;;;;;;2.05;1.40;;;;;;;;;;5022484;28;20026;-87
2022/12/30 14:28:49;;;;;;;1.40;1.10;;;;;;;;;;5023414;28;20045;-87
2022/12/30 14:31:36;;;;;;;0.85;0.85;;;;;;;;;;5041581;28;20558;-89
2022/12/30 14:34:05;;;;;;;4.30;1.48;;;;;;;;;;5039729;28;20048;-87
2022/12/30 14:36:35;;;;;;;1.30;1.02;;;;;;;;;;5021472;28;20025;-89
2022/12/30 14:39:04;;;;;;;3.00;1.52;;;;;;;;;;5038327;28;20018;-88
2022/12/30 14:41:35;;;;;;;5.47;1.50;;;;;;;;;;5016095;28;20053;-89
2022/12/30 14:44:12;;;;;;;2.03;1.25;;;;;;;;;;5037522;28;20109;-88
2022/12/30 14:46:41;;;;;;;2.08;1.40;;;;;;;;;;5041224;28;20036;-87
2022/12/30 14:49:16;;;;;;;2.28;1.52;;;;;;;;;;5040631;28;20029;-88
2022/12/30 14:51:43;;;;;;;2.65;1.73;;;;;;;;;;5023062;28;20479;-87
2022/12/30 14:54:16;;;;;;;3.63;1.50;;;;;;;;;;5039110;28;20038;-88
2022/12/30 14:56:49;;;;;;;3.03;1.95;;;;;;;;;;5009133;28;20029;-87
2022/12/30 14:59:16;;;;;;;3.22;1.85;;;;;;;;;;5014505;28;20037;-88
2022/12/30 15:01:44;;;;;;;3.08;1.77;;;;;;;;;;5030326;28;20033;-87
2022/12/30 15:04:14;;;;;;;4.70;1.90;;;;;;;;;;5038487;28;20017;-88
2022/12/30 15:06:42;;;;;;;2.75;2.08;;;;;;;;;;5017113;28;20024;-88
2022/12/30 15:09:14;;;;;;;3.35;2.10;;;;;;;;;;5024202;28;20021;-88
2022/12/30 15:11:39;;;;;;;4.00;2.43;;;;;;;;;;5006125;28;20029;-87
2022/12/30 15:14:14;;;;;;;5.47;2.30;;;;;;;;;;5023058;28;20033;-88
2022/12/30 15:16:39;;;;;;;12.15;2.60;;;;;;;;;;5005909;28;20030;-90
2022/12/30 15:19:21;;;;;;;4.00;2.30;;;;;;;;;;5005539;28;20087;-88
2022/12/30 15:21:47;;;;;;;5.22;2.38;;;;;;;;;;5007794;28;20129;-88
2022/12/30 15:24:14;;;;;;;4.82;2.72;;;;;;;;;;5023761;28;20045;-88
2022/12/30 15:26:43;;;;;;;3.47;2.10;;;;;;;;;;5013794;28;20049;-88
2022/12/30 15:29:19;;;;;;;4.93;2.00;;;;;;;;;;5024251;28;20018;-87
2022/12/30 15:31:54;;;;;;;3.75;2.50;;;;;;;;;;5012726;28;20381;-87
2022/12/30 15:34:42;;;;;;;2.17;1.80;;;;;;;;;;5031058;28;20476;-87
2022/12/30 15:37:17;;;;;;;2.65;1.77;;;;;;;;;;5030947;28;20033;-87
2022/12/30 15:39:50;;;;;;;4.32;2.20;;;;;;;;;;5022168;28;20014;-88
2022/12/30 15:42:41;;;;;;;4.00;2.30;;;;;;;;;;5023880;28;20014;-88
2022/12/30 15:45:21;;;;;;;2.88;2.15;;;;;;;;;;5040171;28;20013;-88
2022/12/30 15:47:55;;;;;;;2.25;1.63;;;;;;;;;;5022499;28;20010;-89
2022/12/30 15:50:33;;;;;;;2.63;1.67;;;;;;;;;;5008473;28;20081;-87
2022/12/30 15:53:01;;;;;;;3.00;1.65;;;;;;;;;;5008073;28;20080;-87
2022/12/30 15:55:26;;;;;;;2.00;1.77;;;;;;;;;;5020116;28;20108;-90
2022/12/30 15:57:54;;;;;;;3.08;2.08;;;;;;;;;;5031471;28;20032;-89
2022/12/30 16:00:23;;;;;;;3.03;1.65;;;;;;;;;;5037569;28;20029;-89
2022/12/30 16:02:52;;;;;;;1.80;1.50;;;;;;;;;;5039760;28;20029;-88
2022/12/30 16:05:33;;;;;;;2.03;1.38;;;;;;;;;;5009941;28;20022;-88
2022/12/30 16:08:12;;;;;;;2.50;1.48;;;;;;;;;;5021323;28;20395;-88